createdAt,value
2022-09-14T00:01:24.694Z,84.46
2022-09-14T00:03:54.757Z,84.23
2022-09-14T00:06:26.120Z,84.76
2022-09-14T00:09:04.607Z,84.54
2022-09-14T00:11:39.647Z,84.10
2022-09-14T00:14:08.263Z,83.94
2022-09-14T00:16:42.963Z,84.46
2022-09-14T00:19:17.842Z,84.55
2022-09-14T00:21:59.084Z,84.74
2022-09-14T00:24:32.056Z,85.05
2022-09-14T00:27:03.195Z,85.03
2022-09-14T00:29:35.713Z,85.36
2022-09-14T00:32:07.832Z,85.31
2022-09-14T00:34:38.816Z,85.89
2022-09-14T00:37:12.559Z,86.11
2022-09-14T00:39:45.139Z,86.34
2022-09-14T00:42:20.218Z,85.98
2022-09-14T00:45:08.441Z,86.38
2022-09-14T00:47:43.467Z,86.93
2022-09-14T00:50:16.946Z,86.42
2022-09-14T00:52:57.193Z,86.96
2022-09-14T00:55:27.273Z,87.34
2022-09-14T00:57:56.771Z,87.33
2022-09-14T01:00:27.399Z,86.97
2022-09-14T01:02:56.027Z,87.09
2022-09-14T01:05:49.371Z,86.71
2022-09-14T01:08:37.707Z,87.10
2022-09-14T01:11:25.071Z,86.74
2022-09-14T01:13:58.716Z,87.02
2022-09-14T01:16:39.213Z,87.00
2022-09-14T01:19:15.113Z,86.93
2022-09-14T01:21:46.858Z,86.74
2022-09-14T01:24:27.840Z,87.33
2022-09-14T01:27:34.355Z,87.10
2022-09-14T01:30:13.792Z,86.37
2022-09-14T01:32:49.289Z,86.29
2022-09-14T01:35:25.250Z,86.96
2022-09-14T01:37:58.220Z,86.32
2022-09-14T01:40:32.859Z,87.11
2022-09-14T01:43:05.508Z,86.79
2022-09-14T01:45:38.657Z,86.63
2022-09-14T01:48:12.075Z,87.00
2022-09-14T01:50:44.283Z,86.77
2022-09-14T01:53:16.122Z,86.81
2022-09-14T01:55:56.769Z,87.45
2022-09-14T01:58:31.539Z,86.65
2022-09-14T02:01:04.134Z,87.20
2022-09-14T02:03:41.641Z,87.73
2022-09-14T02:06:19.891Z,87.21
2022-09-14T02:08:52.873Z,88.12
2022-09-14T02:11:26.613Z,88.28
2022-09-14T02:13:58.353Z,88.07
2022-09-14T02:16:27.086Z,88.23
2022-09-14T02:18:59.217Z,88.45
2022-09-14T02:21:33.351Z,88.82
2022-09-14T02:24:13.812Z,88.65
2022-09-14T02:26:44.306Z,88.74
2022-09-14T02:29:16.722Z,88.37
2022-09-14T02:32:01.683Z,88.88
2022-09-14T02:34:32.096Z,88.54
2022-09-14T02:37:12.211Z,88.66
2022-09-14T02:39:50.235Z,88.97
2022-09-14T02:42:26.284Z,88.71
2022-09-14T02:45:11.707Z,88.93
2022-09-14T02:47:55.656Z,88.56
2022-09-14T02:50:29.885Z,88.43
2022-09-14T02:53:06.421Z,88.05
2022-09-14T02:55:40.652Z,88.62
2022-09-14T02:58:12.872Z,88.26
2022-09-14T03:00:53.077Z,88.20
2022-09-14T03:03:23.324Z,88.66
2022-09-14T03:05:51.668Z,88.89
2022-09-14T03:08:25.742Z,88.72
2022-09-14T03:10:54.336Z,88.22
2022-09-14T03:13:25.410Z,88.81
2022-09-14T03:15:58.955Z,88.71
2022-09-14T03:18:27.368Z,88.86
2022-09-14T03:21:04.327Z,88.57
2022-09-14T03:23:32.791Z,88.78
2022-09-14T03:26:15.917Z,88.70
2022-09-14T03:28:44.501Z,88.46
2022-09-14T03:31:19.851Z,89.01
2022-09-14T03:33:50.997Z,89.11
2022-09-14T03:36:20.974Z,89.48
2022-09-14T03:38:55.581Z,88.91
2022-09-14T03:41:25.962Z,89.25
2022-09-14T03:43:56.376Z,89.70
2022-09-14T03:46:26.698Z,89.42
2022-09-14T03:48:55.995Z,89.34
2022-09-14T03:51:25.071Z,89.48
2022-09-14T03:53:53.806Z,89.56
2022-09-14T03:56:33.537Z,89.72
2022-09-14T03:59:09.817Z,89.55
2022-09-14T04:01:42.596Z,89.88
2022-09-14T04:04:13.548Z,89.45
2022-09-14T04:06:48.483Z,89.51
2022-09-14T04:09:19.101Z,89.79
2022-09-14T04:11:52.098Z,89.38
2022-09-14T04:14:20.526Z,89.64
2022-09-14T04:16:50.330Z,89.72
2022-09-14T04:19:23.400Z,89.35
2022-09-14T04:21:52.000Z,89.92
2022-09-14T04:24:27.726Z,89.84
2022-09-14T04:27:03.493Z,89.21
2022-09-14T04:29:31.871Z,88.66
2022-09-14T04:32:01.782Z,89.05
2022-09-14T04:34:30.167Z,88.50
2022-09-14T04:37:04.537Z,88.07
2022-09-14T04:39:33.917Z,88.55
2022-09-14T04:42:06.537Z,88.38
2022-09-14T04:44:37.544Z,87.73
2022-09-14T04:47:07.840Z,86.53
2022-09-14T04:49:37.256Z,87.01
2022-09-14T04:52:09.727Z,86.67
2022-09-14T04:54:38.116Z,86.13
2022-09-14T04:57:06.860Z,86.37
2022-09-14T04:59:36.899Z,86.19
2022-09-14T05:02:09.741Z,86.00
2022-09-14T05:04:42.722Z,85.85
2022-09-14T05:07:13.274Z,85.59
2022-09-14T05:09:42.126Z,85.94
2022-09-14T05:12:13.760Z,85.48
2022-09-14T05:14:44.768Z,84.62
2022-09-14T05:17:14.538Z,84.49
2022-09-14T05:19:47.199Z,83.61
2022-09-14T05:22:18.160Z,82.06
2022-09-14T05:24:48.327Z,82.17
2022-09-14T05:27:18.781Z,81.72
2022-09-14T05:29:49.207Z,81.54
2022-09-14T05:32:21.153Z,81.31
2022-09-14T05:34:53.529Z,81.71
2022-09-14T05:37:21.996Z,81.13
2022-09-14T05:39:51.993Z,81.33
2022-09-14T05:42:20.756Z,80.83
2022-09-14T05:44:50.407Z,80.40
2022-09-14T05:47:25.289Z,79.83
2022-09-14T05:49:53.692Z,79.84
2022-09-14T05:52:22.013Z,80.10
2022-09-14T05:54:59.303Z,80.01
2022-09-14T05:57:29.886Z,80.34
2022-09-14T06:00:00.409Z,80.11
2022-09-14T06:02:33.150Z,80.76
2022-09-14T06:05:06.172Z,80.60
2022-09-14T06:07:36.843Z,81.15
2022-09-14T06:10:08.769Z,81.45
2022-09-14T06:12:37.114Z,81.58
2022-09-14T06:15:16.958Z,81.28
2022-09-14T06:17:48.939Z,82.11
2022-09-14T06:20:21.853Z,82.24
2022-09-14T06:22:54.012Z,82.33
2022-09-14T06:25:22.424Z,82.74
2022-09-14T06:27:50.806Z,82.32
2022-09-14T06:30:19.270Z,82.28
2022-09-14T06:32:49.058Z,81.67
2022-09-14T06:35:19.979Z,81.47
2022-09-14T06:37:50.907Z,81.16
2022-09-14T06:40:19.485Z,81.31
2022-09-14T06:42:47.924Z,81.10
2022-09-14T06:45:18.596Z,80.94
2022-09-14T06:47:51.688Z,81.33
2022-09-14T06:50:20.103Z,81.28
2022-09-14T06:52:49.967Z,81.50
2022-09-14T06:55:18.714Z,81.19
2022-09-14T06:57:49.493Z,81.46
2022-09-14T07:00:20.164Z,81.03
2022-09-14T07:02:55.578Z,81.11
2022-09-14T07:05:29.195Z,80.39
2022-09-14T07:07:57.982Z,79.90
2022-09-14T07:10:30.237Z,78.99
2022-09-14T07:13:02.839Z,78.33
2022-09-14T07:15:32.039Z,78.27
2022-09-14T07:18:00.470Z,77.76
2022-09-14T07:20:31.097Z,77.57
2022-09-14T07:23:01.864Z,77.42
2022-09-14T07:25:32.400Z,77.22
2022-09-14T07:28:03.927Z,77.17
2022-09-14T07:30:33.511Z,78.02
2022-09-14T07:33:21.509Z,77.73
2022-09-14T07:35:55.220Z,77.62
2022-09-14T07:38:48.202Z,77.81
2022-09-14T07:41:15.443Z,78.10
2022-09-14T07:43:47.282Z,78.28
2022-09-14T07:46:18.192Z,78.54
2022-09-14T07:48:50.684Z,78.79
2022-09-14T07:51:23.548Z,79.37
2022-09-14T07:53:54.699Z,80.41
2022-09-14T07:56:25.504Z,80.80
2022-09-14T07:59:11.880Z,80.93
2022-09-14T08:01:49.728Z,81.30
2022-09-14T08:04:18.351Z,81.23
2022-09-14T08:06:55.127Z,80.75
2022-09-14T08:09:29.482Z,80.65
2022-09-14T08:11:58.134Z,80.54
2022-09-14T08:14:30.855Z,80.78
2022-09-14T08:17:01.819Z,80.92
2022-09-14T08:19:34.334Z,81.54
2022-09-14T08:22:06.536Z,82.18
2022-09-14T08:24:37.595Z,82.82
2022-09-14T08:27:09.307Z,82.74
2022-09-14T08:29:37.852Z,82.64
2022-09-14T08:32:08.849Z,82.47
2022-09-14T08:34:42.555Z,81.93
2022-09-14T08:37:14.143Z,81.53
2022-09-14T08:39:51.532Z,80.43
2022-09-14T08:42:27.861Z,79.01
2022-09-14T08:45:00.501Z,79.21
2022-09-14T08:47:41.938Z,78.53
2022-09-14T08:53:20.325Z,77.69
2022-09-14T08:55:55.188Z,78.58
2022-09-14T08:58:52.917Z,78.28
2022-09-14T09:01:29.554Z,78.89
2022-09-14T09:04:18.810Z,79.22
2022-09-14T09:06:57.210Z,79.57
2022-09-14T09:09:50.632Z,79.08
2022-09-14T09:12:26.045Z,79.40
2022-09-14T09:14:56.633Z,79.06
2022-09-14T09:17:34.925Z,78.65
2022-09-14T09:20:13.929Z,77.98
2022-09-14T09:22:50.833Z,77.48
2022-09-14T09:25:23.696Z,76.90
2022-09-14T09:27:54.399Z,76.79
2022-09-14T09:30:26.150Z,77.10
2022-09-14T09:33:12.850Z,77.33
2022-09-14T09:35:55.318Z,77.47
2022-09-14T09:38:31.929Z,77.59
2022-09-14T09:41:17.710Z,77.97
2022-09-14T09:44:04.673Z,78.64
2022-09-14T09:46:36.014Z,78.49
2022-09-14T09:49:19.312Z,78.71
2022-09-14T09:51:49.111Z,78.85
2022-09-14T09:54:32.955Z,78.60
2022-09-14T09:57:05.726Z,79.18
2022-09-14T09:59:36.722Z,79.11
2022-09-14T10:02:27.645Z,79.01
2022-09-14T10:05:08.591Z,78.57
2022-09-14T10:07:44.386Z,78.17
2022-09-14T10:10:16.691Z,78.38
2022-09-14T10:12:55.443Z,78.19
2022-09-14T10:15:27.064Z,78.58
2022-09-14T10:18:13.327Z,78.54
2022-09-14T10:20:45.260Z,78.36
2022-09-14T10:23:30.615Z,77.69
2022-09-14T10:26:35.430Z,78.14
2022-09-14T10:29:37.176Z,78.06
2022-09-14T10:32:18.900Z,78.28
2022-09-14T10:34:49.347Z,78.54
2022-09-14T10:37:29.917Z,78.47
2022-09-14T10:40:18.012Z,78.42
2022-09-14T10:43:01.430Z,77.94
2022-09-14T10:45:37.198Z,77.20
2022-09-14T10:48:24.795Z,77.26
2022-09-14T10:51:14.201Z,76.67
2022-09-14T10:53:51.284Z,75.81
2022-09-14T10:56:28.561Z,75.77
2022-09-14T10:59:38.525Z,74.87
2022-09-14T11:02:56.683Z,74.69
2022-09-14T11:05:39.050Z,75.26
2022-09-14T11:08:32.576Z,74.86
2022-09-14T11:11:24.168Z,74.73
2022-09-14T11:14:05.318Z,74.68
2022-09-14T11:17:01.970Z,74.42
2022-09-14T11:19:44.931Z,73.66
2022-09-14T11:22:34.353Z,72.97
2022-09-14T11:25:13.886Z,73.68
2022-09-14T11:27:56.482Z,73.65
2022-09-14T11:30:30.875Z,72.74
2022-09-14T11:33:03.309Z,73.16
2022-09-14T11:35:38.463Z,72.48
2022-09-14T11:38:16.168Z,73.22
2022-09-14T11:41:02.085Z,73.28
2022-09-14T11:43:45.086Z,73.03
2022-09-14T11:46:25.206Z,73.19
2022-09-14T11:49:04.670Z,73.31
2022-09-14T11:51:58.440Z,73.18
2022-09-14T11:54:31.833Z,73.57
2022-09-14T11:57:19.455Z,73.62
2022-09-14T12:00:02.602Z,73.56
2022-09-14T12:03:13.638Z,73.34
2022-09-14T12:06:06.140Z,73.80
2022-09-14T12:08:42.774Z,74.28
2022-09-14T12:11:33.779Z,73.74
2022-09-14T12:17:49.245Z,72.82
2022-09-14T12:20:54.755Z,73.19
2022-09-14T12:23:36.593Z,73.08
2022-09-14T12:26:39.048Z,73.08
2022-09-14T12:29:28.117Z,73.10
2022-09-14T12:32:34.296Z,73.13
2022-09-14T12:35:40.580Z,72.80
2022-09-14T12:38:47.622Z,72.53
2022-09-14T12:41:52.837Z,72.03
2022-09-14T12:44:38.736Z,71.32
2022-09-14T12:48:01.492Z,71.23
2022-09-14T12:50:41.332Z,71.35
2022-09-14T12:53:39.491Z,71.23
2022-09-14T12:56:18.341Z,72.18
2022-09-14T12:59:13.579Z,72.71
2022-09-14T13:05:32.333Z,73.30
2022-09-14T13:08:32.847Z,73.15
2022-09-14T13:11:09.380Z,72.74
2022-09-14T13:13:41.770Z,73.03
2022-09-14T13:16:16.634Z,73.47
2022-09-14T13:18:48.405Z,73.32
2022-09-14T13:21:24.223Z,73.43
2022-09-14T13:24:00.470Z,73.22
2022-09-14T13:26:33.523Z,72.91
2022-09-14T13:29:09.506Z,71.91
2022-09-14T13:31:42.627Z,71.59
2022-09-14T13:34:45.614Z,71.36
2022-09-14T13:37:18.082Z,70.84
2022-09-14T13:39:52.260Z,70.57
2022-09-14T13:42:39.454Z,70.38
2022-09-14T13:45:35.696Z,70.32
2022-09-14T13:48:35.819Z,69.44
2022-09-14T13:51:19.667Z,69.43
2022-09-14T13:53:50.245Z,68.86
2022-09-14T13:56:28.354Z,68.30
2022-09-14T13:59:24.683Z,68.07
2022-09-14T14:02:32.203Z,68.42
2022-09-14T14:05:05.862Z,68.46
2022-09-14T14:07:51.162Z,68.95
2022-09-14T14:10:31.564Z,69.61
2022-09-14T14:13:03.801Z,69.95
2022-09-14T14:15:57.628Z,69.93
2022-09-14T14:18:42.938Z,70.14
2022-09-14T14:21:42.629Z,70.24
2022-09-14T14:25:09.226Z,70.18
2022-09-14T14:27:56.891Z,69.78
2022-09-14T14:30:29.724Z,70.39
2022-09-14T14:33:15.598Z,70.68
2022-09-14T14:35:50.505Z,70.85
2022-09-14T14:38:35.416Z,70.69
2022-09-14T14:41:07.603Z,70.58
2022-09-14T14:43:39.043Z,71.03
2022-09-14T14:46:41.358Z,71.46
2022-09-14T14:49:13.661Z,71.92
2022-09-14T14:52:35.279Z,72.00
2022-09-14T14:58:50.924Z,72.43
2022-09-14T15:01:34.827Z,72.36
2022-09-14T15:04:23.762Z,72.70
2022-09-14T15:06:53.265Z,72.76
2022-09-14T15:09:26.735Z,73.24
2022-09-14T15:12:07.236Z,73.85
2022-09-14T15:17:32.212Z,74.57
2022-09-14T15:20:36.595Z,74.75
2022-09-14T15:23:09.066Z,74.94
2022-09-14T15:25:53.001Z,75.12
2022-09-14T15:28:30.498Z,75.06
2022-09-14T15:31:08.493Z,75.93
2022-09-14T15:33:55.945Z,76.07
2022-09-14T15:36:43.907Z,75.70
2022-09-14T15:39:37.259Z,75.58
2022-09-14T15:42:11.082Z,76.02
2022-09-14T15:44:42.226Z,75.99
2022-09-14T15:47:17.634Z,75.78
2022-09-14T15:49:48.220Z,75.75
2022-09-14T15:52:24.073Z,75.77
2022-09-14T15:54:52.682Z,75.69
2022-09-14T15:57:22.965Z,75.58
2022-09-14T15:59:52.767Z,75.56
2022-09-14T16:02:33.012Z,76.02
2022-09-14T16:05:05.314Z,76.14
2022-09-14T16:07:38.927Z,76.03
2022-09-14T16:10:11.464Z,76.04
2022-09-14T16:12:44.425Z,76.03
2022-09-14T16:15:13.280Z,75.96
2022-09-14T16:18:25.622Z,75.85
2022-09-14T16:21:12.633Z,76.06
2022-09-14T16:26:59.892Z,75.84
2022-09-14T16:29:29.673Z,76.08
2022-09-14T16:32:01.509Z,76.06
2022-09-14T16:34:36.067Z,76.32
2022-09-14T16:37:12.662Z,76.40
2022-09-14T16:39:50.825Z,76.59
2022-09-14T16:42:20.296Z,76.77
2022-09-14T16:44:56.344Z,76.91
2022-09-14T16:50:37.431Z,77.77
2022-09-14T16:53:10.605Z,77.97
2022-09-14T16:55:40.268Z,77.85
2022-09-14T16:58:32.515Z,78.12
2022-09-14T17:01:10.909Z,78.35
2022-09-14T17:03:47.709Z,78.15
2022-09-14T17:06:24.040Z,78.30
2022-09-14T17:09:04.998Z,78.44
2022-09-14T17:11:48.050Z,78.43
2022-09-14T17:14:42.512Z,78.61
2022-09-14T17:17:20.821Z,79.14
2022-09-14T17:19:53.915Z,79.31
2022-09-14T17:22:25.433Z,79.65
2022-09-14T17:24:55.725Z,80.11
2022-09-14T17:27:27.597Z,80.37
2022-09-14T17:29:59.515Z,80.47
2022-09-14T17:32:37.592Z,81.05
2022-09-14T17:35:14.494Z,81.28
2022-09-14T17:38:01.388Z,81.44
2022-09-14T17:40:40.020Z,81.87
2022-09-14T17:43:08.581Z,81.94
2022-09-14T17:45:59.347Z,82.12
2022-09-14T17:51:36.114Z,82.41
2022-09-14T17:54:17.032Z,82.20
2022-09-14T17:56:50.105Z,82.20
2022-09-14T17:59:27.951Z,82.26
2022-09-14T18:02:03.333Z,82.49
2022-09-14T18:04:47.877Z,82.69
2022-09-14T18:07:19.690Z,82.83
2022-09-14T18:09:49.342Z,82.63
2022-09-14T18:12:32.269Z,82.78
2022-09-14T18:15:06.629Z,82.57
2022-09-14T18:17:40.729Z,82.90
2022-09-14T18:24:18.296Z,83.38
2022-09-14T18:26:50.638Z,83.50
2022-09-14T18:29:34.748Z,83.42
2022-09-14T18:32:04.388Z,83.49
2022-09-14T18:34:37.934Z,83.98
2022-09-14T18:37:10.210Z,83.60
2022-09-14T18:39:44.937Z,83.75
2022-09-14T18:42:32.079Z,83.66
2022-09-14T18:45:48.453Z,83.66
2022-09-14T18:48:23.089Z,83.42
2022-09-14T18:50:55.047Z,83.65
2022-09-14T18:53:25.854Z,83.71
2022-09-14T18:55:59.782Z,83.42
2022-09-14T18:58:53.937Z,83.38
2022-09-14T19:02:09.057Z,83.79
2022-09-14T19:04:56.014Z,83.88
2022-09-14T19:08:07.629Z,84.33
2022-09-14T19:10:43.164Z,84.83
2022-09-14T19:13:36.700Z,85.28
2022-09-14T19:16:17.664Z,85.64
2022-09-14T19:18:56.437Z,85.88
2022-09-14T19:21:31.372Z,86.00
2022-09-14T19:24:14.965Z,86.27
2022-09-14T19:26:51.188Z,86.17
2022-09-14T19:29:29.781Z,86.15
2022-09-14T19:32:12.397Z,86.56
2022-09-14T19:34:49.134Z,86.07
2022-09-14T19:37:19.797Z,86.12
2022-09-14T19:39:57.704Z,86.22
2022-09-14T19:42:49.594Z,86.14
2022-09-14T19:45:37.499Z,85.91
2022-09-14T19:54:12.272Z,86.06
2022-09-14T19:57:06.746Z,85.84
2022-09-14T19:59:52.732Z,85.91
2022-09-14T20:02:46.391Z,85.81
2022-09-14T20:05:20.493Z,85.46
2022-09-14T20:08:06.419Z,85.48
2022-09-14T20:10:40.859Z,86.04
2022-09-14T20:13:16.000Z,86.15
2022-09-14T20:15:46.759Z,86.33
2022-09-14T20:18:19.025Z,86.14
2022-09-14T20:21:11.683Z,86.41
2022-09-14T20:24:17.391Z,86.52
2022-09-14T20:27:06.747Z,86.95
2022-09-14T20:30:07.728Z,86.60
2022-09-14T20:32:41.828Z,86.63
2022-09-14T20:35:19.429Z,86.80
2022-09-14T20:37:54.028Z,86.59
2022-09-14T20:40:39.458Z,86.81
2022-09-14T20:43:11.448Z,86.64
2022-09-14T20:45:41.775Z,86.72
2022-09-14T20:48:32.971Z,86.47
2022-09-14T20:51:21.571Z,86.76
2022-09-14T20:54:05.523Z,86.57
2022-09-14T20:57:10.649Z,86.74
2022-09-14T21:02:57.290Z,87.19
2022-09-14T21:05:57.899Z,87.01
2022-09-14T21:08:41.858Z,87.38
2022-09-14T21:11:35.008Z,87.39
2022-09-14T21:14:13.721Z,87.70
2022-09-14T21:16:52.616Z,87.60
2022-09-14T21:19:25.541Z,87.67
2022-09-14T21:22:10.446Z,87.46
2022-09-14T21:24:42.329Z,87.63
2022-09-14T21:27:17.632Z,87.51
2022-09-14T21:29:48.739Z,87.92
2022-09-14T21:32:17.584Z,88.34
2022-09-14T21:35:03.255Z,88.46
2022-09-14T21:37:36.431Z,88.16
2022-09-14T21:40:07.188Z,88.37
2022-09-14T21:42:37.501Z,89.03
2022-09-14T21:45:10.824Z,89.29
2022-09-14T21:47:47.542Z,89.32
2022-09-14T21:50:20.338Z,89.99
2022-09-14T21:52:55.760Z,90.14
2022-09-14T21:55:26.882Z,90.52
2022-09-14T22:00:49.830Z,90.83
2022-09-14T22:03:20.554Z,91.22
2022-09-14T22:05:58.788Z,91.35
2022-09-14T22:08:29.213Z,91.29
2022-09-14T22:11:02.004Z,91.59
2022-09-14T22:13:34.882Z,91.63
2022-09-14T22:16:16.570Z,91.59
2022-09-14T22:19:02.307Z,91.80
2022-09-14T22:21:39.921Z,92.00
2022-09-14T22:24:14.819Z,92.07
2022-09-14T22:26:52.061Z,92.06
2022-09-14T22:29:22.811Z,92.18
2022-09-14T22:31:58.710Z,92.38
2022-09-14T22:34:30.418Z,92.11
2022-09-14T22:37:00.608Z,92.03
2022-09-14T22:39:40.220Z,91.99
2022-09-14T22:42:11.293Z,92.25
2022-09-14T22:44:42.714Z,92.55
2022-09-14T22:47:14.322Z,92.54
2022-09-14T22:49:48.806Z,92.43
2022-09-14T22:52:22.673Z,92.49
2022-09-14T22:54:51.515Z,92.52
2022-09-14T22:57:24.288Z,92.43
2022-09-14T23:00:00.448Z,92.58
2022-09-14T23:02:38.468Z,92.24
2022-09-14T23:05:13.002Z,92.12
2022-09-14T23:07:47.396Z,92.08
2022-09-14T23:10:23.926Z,92.27
2022-09-14T23:12:52.550Z,92.40
2022-09-14T23:15:23.935Z,92.41
2022-09-14T23:17:58.207Z,92.73
2022-09-14T23:20:29.441Z,92.62
2022-09-14T23:23:01.036Z,92.84
2022-09-14T23:25:37.752Z,92.67
2022-09-14T23:28:13.939Z,92.32
2022-09-14T23:30:42.489Z,92.72
2022-09-14T23:33:12.479Z,92.21
2022-09-14T23:35:48.263Z,92.70
2022-09-14T23:38:18.861Z,92.42
2022-09-14T23:40:47.381Z,92.81
2022-09-14T23:43:15.879Z,92.92
2022-09-14T23:45:45.408Z,93.01
2022-09-14T23:48:18.157Z,92.76
2022-09-14T23:50:46.613Z,92.86
2022-09-14T23:53:15.013Z,92.94
2022-09-14T23:55:44.049Z,93.19
2022-09-14T23:58:16.974Z,93.17
